Lindsay Nobles — WDI2220 — position and weather

sailwx.info

Track history (hours):
 
Tides and Currents Weather Stations Pressure Air Temp Water Temp Dewpoint Dewpoint Depression Visibility Wind Speed Wind Dir Waves Ship Positions

Lindsay Nobles

Owner: Genesis Marine, Houston, TX. More information available from US FCC via Universal Licensing System and Coast Guard Vessel Documentation Center.

Last reported at 2017-Nov-17 13:23 UTC. Time now 2017-Nov-20 16:54 UTC.
Position N 29°57' W 090°23'.

Length 32 m; draft 3 m.

Type: Ship (hazmat cat A). MMSI: 367675910.

Date/timePositionNaut miles runAvg speedWind from/ knotsBaromVisibWave heightAir tempDewpointWater temp
2017-Nov-17 13:23N 29°57' W 090°23'0 0.0
2017-Nov-17 11:44N 29°57' W 090°23'0 0.0
2017-Nov-17 11:17N 29°57' W 090°23'0 0.0
2017-Nov-17 10:52N 29°57' W 090°23'0 0.0
2017-Nov-17 10:30N 29°57' W 090°23'0 0.0
2017-Nov-17 07:17N 29°57' W 090°23'0 0.0
2017-Nov-17 06:58N 29°57' W 090°23'1 0.0
2017-Nov-15 07:24N 29°57' W 090°23'0 0.0
2017-Nov-15 06:59N 29°57' W 090°23'0 0.0
2017-Nov-15 06:30N 29°57' W 090°23'0 0.0
2017-Nov-15 05:14N 29°57' W 090°23'0 0.0
2017-Nov-15 04:58N 29°57' W 090°23'0 0.0
2017-Nov-15 04:17N 29°57' W 090°23'  
2017-Nov-12 04:27N 29°57' W 090°23'0 0.3
2017-Nov-12 03:27N 29°57' W 090°23'128 2.6
2017-Nov-10 02:26N 31°60' W 091°05'6 7.4
2017-Nov-10 01:34N 32°06' W 091°06'0 8.5
2017-Nov-10 01:30N 32°07' W 091°06'3 5.1
2017-Nov-10 01:00N 32°08' W 091°03'3 6.6
2017-Nov-10 00:30N 32°09' W 091°00'5 9.2
2017-Nov-10 00:00N 32°14' W 090°59'4 8.9
2017-Nov-09 23:30N 32°17' W 090°56'3 6.8
2017-Nov-09 23:00N 32°20' W 090°55'4 8.5
2017-Nov-09 22:30N 32°21' W 090°59'4 8.0
2017-Nov-09 22:00N 32°25' W 090°60'5 9.0
2017-Nov-09 21:30N 32°27' W 091°05'  
Track history (hours):
 
Tides and Currents Weather Stations Pressure Air Temp Water Temp Dewpoint Dewpoint Depression Visibility Wind Speed Wind Dir Waves Ship Positions

Lindsay Nobles

Owner: Genesis Marine, Houston, TX. More information available from US FCC via Universal Licensing System and Coast Guard Vessel Documentation Center.

Last reported at 2017-Nov-17 13:23 UTC. Time now 2017-Nov-20 16:54 UTC.
Position N 29°57' W 090°23'.

Length 32 m; draft 3 m.

Type: Ship (hazmat cat A). MMSI: 367675910.

Date/timePositionNaut miles runAvg speedWind from/ knotsBaromVisibWave heightAir tempDewpointWater temp
2017-Nov-17 13:23N 29°57' W 090°23'0 0.0
2017-Nov-17 11:44N 29°57' W 090°23'0 0.0
2017-Nov-17 11:17N 29°57' W 090°23'0 0.0
2017-Nov-17 10:52N 29°57' W 090°23'0 0.0
2017-Nov-17 10:30N 29°57' W 090°23'0 0.0
2017-Nov-17 07:17N 29°57' W 090°23'0 0.0
2017-Nov-17 06:58N 29°57' W 090°23'1 0.0
2017-Nov-15 07:24N 29°57' W 090°23'0 0.0
2017-Nov-15 06:59N 29°57' W 090°23'0 0.0
2017-Nov-15 06:30N 29°57' W 090°23'0 0.0
2017-Nov-15 05:14N 29°57' W 090°23'0 0.0
2017-Nov-15 04:58N 29°57' W 090°23'0 0.0
2017-Nov-15 04:17N 29°57' W 090°23'  
2017-Nov-12 04:27N 29°57' W 090°23'0 0.3
2017-Nov-12 03:27N 29°57' W 090°23'128 2.6
2017-Nov-10 02:26N 31°60' W 091°05'6 7.4
2017-Nov-10 01:34N 32°06' W 091°06'0 8.5
2017-Nov-10 01:30N 32°07' W 091°06'3 5.1
2017-Nov-10 01:00N 32°08' W 091°03'3 6.6
2017-Nov-10 00:30N 32°09' W 091°00'5 9.2
2017-Nov-10 00:00N 32°14' W 090°59'4 8.9
2017-Nov-09 23:30N 32°17' W 090°56'3 6.8
2017-Nov-09 23:00N 32°20' W 090°55'4 8.5
2017-Nov-09 22:30N 32°21' W 090°59'4 8.0
2017-Nov-09 22:00N 32°25' W 090°60'5 9.0
2017-Nov-09 21:30N 32°27' W 091°05'  

Dump ship's entire track history